الصفحة الرئيسية
METAR-TAF:

METAR-TAF

مطار :

مطار عمان المدني

عمان, الأردن

دائرة عرض: 31-59N, خط طول: 035-59E, ارتفاع: 767 متر

مراقبة الطقس الحالي

تاريخ ووقت الإصدار 38 دقيقة قبل الساعة 06:00UTC
رياح هادئة
درجة الحرارة 7°درجة مئوية
الرطوبة 81%
ضغط 1026 hPa
الرؤية: 5000 متر
العجاج

METAR: OJAM 140600Z 00000KT 5000 HZ NSC 07/04 Q1026 NOSIG

زمن: 08:38 (06:38 UTC)

توقعات

تاريخ ووقت الإصدار 1ساعة و 38 دقيقة قبل الساعة 05:00UTC
التوقعات صالحة من14 الساعة 06 UTC إلى 15 الساعة 12 UTC
ريح 2 عقدةمن اتجاهات متغيرة
الرؤية: 5000 متر
غيوم قليلة على ارتفاع 3000 قدم
العجاج
أصبح
من 14 الساعة 07 UTC إلى 14 الساعة 09 UTC
ريح 6 عقدة من الشرق/الجنوب الشرقي
الرؤية: 6000 متر
غيوم متفرقة على ارتفاع 3000 قدم
نظرية الاحتمالات 30%
من 15 الساعة 01 UTC إلى 15 الساعة 06 UTC
ريح 2 عقدةمن اتجاهات متغيرة
الرؤية: 4000 متر
غشاء

TAF: OJAM 140500Z 1406/1512 VRB02KT 5000 HZ FEW030 BECMG 1407/1409 12006KT 6000 SCT030 PROB30 1501/1506 VRB02KT 4000 BR

أرصاد الطقس والتوقعات من أكثر من 4000 مطار (تقارير الطقس للمطار METAR والتنبؤ بالطقس بالمطارTAF).

المحطات المتاحة هي النقط الصفراء والحمراء على الخريطة.

حرك المؤشر فوق النقطة لمعرفة اسم المحطة.

ثم انقر لمعرفة أرصاد وتوقعات الطقس.

لتغيير الخارطة: اضغط على الأزرار الخضراء مع رمز الصليب الأسود للتكبير. على الزر الأخضر مع شرطة للتصغير، أو على الأسهم الخضراء للخرائط المجاورة.


METAR-TAF: